sensor_id;sensor_type;location;lat;lon;timestamp;P1;P4;P2;P0;N10;N4;N25;N1;N05;TS
85633;SPS30;76057;47.828;13.040;2024-01-27T00:01:31;1.6;;1.6;1.5;;;;;;
85633;SPS30;76057;47.828;13.040;2024-01-27T00:06:31;1.6;;1.7;1.5;;;;;;
85633;SPS30;76057;47.828;13.040;2024-01-27T00:11:31;2.0;;2.0;1.8;;;;;;
85633;SPS30;76057;47.828;13.040;2024-01-27T00:16:31;1.8;;1.9;1.7;;;;;;
85633;SPS30;76057;47.828;13.040;2024-01-27T00:21:31;2.0;;2.0;1.9;;;;;;
85633;SPS30;76057;47.828;13.040;2024-01-27T00:26:31;1.8;;1.8;1.7;;;;;;
85633;SPS30;76057;47.828;13.040;2024-01-27T00:31:31;2.0;;2.0;1.9;;;;;;
85633;SPS30;76057;47.828;13.040;2024-01-27T00:36:31;1.6;;1.6;1.5;;;;;;
85633;SPS30;76057;47.828;13.040;2024-01-27T00:41:31;2.1;;2.1;2.0;;;;;;
85633;SPS30;76057;47.828;13.040;2024-01-27T00:46:31;2.1;;2.1;2.0;;;;;;
85633;SPS30;76057;47.828;13.040;2024-01-27T00:51:32;2.0;;2.0;1.9;;;;;;
85633;SPS30;76057;47.828;13.040;2024-01-27T00:56:31;2.2;;2.2;2.1;;;;;;
85633;SPS30;76057;47.828;13.040;2024-01-27T01:01:31;2.1;;2.2;1.9;;;;;;
85633;SPS30;76057;47.828;13.040;2024-01-27T01:06:31;2.3;;2.3;2.2;;;;;;
85633;SPS30;76057;47.828;13.040;2024-01-27T01:11:31;2.2;;2.2;2.1;;;;;;
85633;SPS30;76057;47.828;13.040;2024-01-27T01:16:31;2.0;;2.1;1.9;;;;;;
85633;SPS30;76057;47.828;13.040;2024-01-27T01:21:31;1.8;;1.8;1.7;;;;;;
85633;SPS30;76057;47.828;13.040;2024-01-27T01:26:31;1.9;;2.0;1.8;;;;;;
85633;SPS30;76057;47.828;13.040;2024-01-27T01:31:31;1.9;;1.9;1.8;;;;;;
85633;SPS30;76057;47.828;13.040;2024-01-27T01:36:31;2.1;;2.1;2.0;;;;;;
85633;SPS30;76057;47.828;13.040;2024-01-27T01:41:31;1.9;;1.9;1.8;;;;;;
85633;SPS30;76057;47.828;13.040;2024-01-27T01:46:31;1.8;;1.8;1.7;;;;;;
85633;SPS30;76057;47.828;13.040;2024-01-27T01:51:31;1.8;;1.8;1.7;;;;;;
85633;SPS30;76057;47.828;13.040;2024-01-27T01:56:31;1.6;;1.6;1.5;;;;;;
85633;SPS30;76057;47.828;13.040;2024-01-27T02:01:31;2.0;;2.0;1.9;;;;;;
85633;SPS30;76057;47.828;13.040;2024-01-27T02:06:31;1.9;;1.9;1.8;;;;;;
85633;SPS30;76057;47.828;13.040;2024-01-27T02:11:31;2.4;;2.4;2.3;;;;;;
85633;SPS30;76057;47.828;13.040;2024-01-27T02:16:31;2.0;;2.0;1.9;;;;;;
85633;SPS30;76057;47.828;13.040;2024-01-27T02:21:31;2.3;;2.3;2.1;;;;;;
85633;SPS30;76057;47.828;13.040;2024-01-27T02:26:31;1.7;;1.7;1.6;;;;;;
85633;SPS30;76057;47.828;13.040;2024-01-27T02:31:31;1.5;;1.5;1.5;;;;;;
85633;SPS30;76057;47.828;13.040;2024-01-27T02:36:31;1.6;;1.6;1.5;;;;;;
85633;SPS30;76057;47.828;13.040;2024-01-27T02:41:31;1.9;;1.9;1.8;;;;;;
85633;SPS30;76057;47.828;13.040;2024-01-27T02:46:31;1.8;;1.8;1.7;;;;;;
85633;SPS30;76057;47.828;13.040;2024-01-27T02:51:31;1.9;;1.9;1.8;;;;;;
85633;SPS30;76057;47.828;13.040;2024-01-27T02:56:31;2.0;;2.0;1.9;;;;;;
85633;SPS30;76057;47.828;13.040;2024-01-27T03:01:31;1.5;;1.5;1.5;;;;;;
85633;SPS30;76057;47.828;13.040;2024-01-27T03:06:31;1.8;;1.8;1.7;;;;;;
85633;SPS30;76057;47.828;13.040;2024-01-27T03:11:31;1.8;;1.8;1.7;;;;;;
85633;SPS30;76057;47.828;13.040;2024-01-27T03:16:31;2.1;;2.1;2.0;;;;;;
85633;SPS30;76057;47.828;13.040;2024-01-27T03:21:31;1.6;;1.6;1.5;;;;;;
85633;SPS30;76057;47.828;13.040;2024-01-27T03:26:31;2.0;;2.0;1.9;;;;;;
85633;SPS30;76057;47.828;13.040;2024-01-27T03:31:31;1.5;;1.5;1.5;;;;;;
85633;SPS30;76057;47.828;13.040;2024-01-27T03:36:31;1.7;;1.7;1.7;;;;;;
85633;SPS30;76057;47.828;13.040;2024-01-27T03:41:31;1.7;;1.8;1.6;;;;;;
85633;SPS30;76057;47.828;13.040;2024-01-27T03:46:31;1.7;;1.7;1.6;;;;;;
85633;SPS30;76057;47.828;13.040;2024-01-27T03:51:31;1.8;;1.9;1.7;;;;;;
85633;SPS30;76057;47.828;13.040;2024-01-27T03:56:31;1.8;;1.9;1.7;;;;;;
85633;SPS30;76057;47.828;13.040;2024-01-27T04:01:31;2.0;;2.1;1.9;;;;;;
85633;SPS30;76057;47.828;13.040;2024-01-27T04:06:36;1.9;;1.9;1.7;;;;;;
85633;SPS30;76057;47.828;13.040;2024-01-27T04:11:31;2.3;;2.4;2.2;;;;;;
85633;SPS30;76057;47.828;13.040;2024-01-27T04:16:31;1.4;;1.4;1.3;;;;;;
85633;SPS30;76057;47.828;13.040;2024-01-27T04:21:31;2.2;;2.2;2.1;;;;;;
85633;SPS30;76057;47.828;13.040;2024-01-27T04:26:31;2.3;;2.3;2.2;;;;;;
85633;SPS30;76057;47.828;13.040;2024-01-27T04:31:31;2.3;;2.3;2.1;;;;;;
85633;SPS30;76057;47.828;13.040;2024-01-27T04:36:31;2.4;;2.5;2.3;;;;;;
85633;SPS30;76057;47.828;13.040;2024-01-27T04:41:31;2.3;;2.3;2.2;;;;;;
85633;SPS30;76057;47.828;13.040;2024-01-27T04:46:31;2.0;;2.0;1.9;;;;;;
85633;SPS30;76057;47.828;13.040;2024-01-27T04:51:31;2.5;;2.6;2.4;;;;;;
85633;SPS30;76057;47.828;13.040;2024-01-27T04:56:31;2.4;;2.5;2.2;;;;;;
85633;SPS30;76057;47.828;13.040;2024-01-27T05:01:31;1.8;;1.8;1.7;;;;;;
85633;SPS30;76057;47.828;13.040;2024-01-27T05:06:31;2.1;;2.1;2.0;;;;;;
85633;SPS30;76057;47.828;13.040;2024-01-27T05:11:31;2.3;;2.4;2.1;;;;;;
85633;SPS30;76057;47.828;13.040;2024-01-27T05:16:31;2.2;;2.2;2.1;;;;;;
85633;SPS30;76057;47.828;13.040;2024-01-27T05:21:31;2.4;;2.5;2.3;;;;;;
85633;SPS30;76057;47.828;13.040;2024-01-27T05:26:31;2.4;;2.5;2.2;;;;;;
85633;SPS30;76057;47.828;13.040;2024-01-27T05:31:31;2.2;;2.3;2.1;;;;;;
85633;SPS30;76057;47.828;13.040;2024-01-27T05:36:31;2.1;;2.2;1.9;;;;;;
85633;SPS30;76057;47.828;13.040;2024-01-27T05:41:31;2.5;;2.6;2.3;;;;;;
85633;SPS30;76057;47.828;13.040;2024-01-27T05:46:31;2.1;;2.2;2.0;;;;;;
85633;SPS30;76057;47.828;13.040;2024-01-27T05:51:31;2.2;;2.2;2.0;;;;;;
85633;SPS30;76057;47.828;13.040;2024-01-27T05:56:31;2.2;;2.2;2.1;;;;;;
85633;SPS30;76057;47.828;13.040;2024-01-27T06:01:31;2.0;;2.0;1.9;;;;;;
85633;SPS30;76057;47.828;13.040;2024-01-27T06:11:31;2.7;;2.8;2.6;;;;;;
85633;SPS30;76057;47.828;13.040;2024-01-27T06:16:31;3.2;;3.2;3.0;;;;;;
85633;SPS30;76057;47.828;13.040;2024-01-27T06:21:31;2.8;;2.8;2.7;;;;;;
85633;SPS30;76057;47.828;13.040;2024-01-27T06:26:31;2.5;;2.5;2.4;;;;;;
85633;SPS30;76057;47.828;13.040;2024-01-27T06:31:31;3.1;;3.1;2.9;;;;;;
85633;SPS30;76057;47.828;13.040;2024-01-27T06:36:31;2.8;;2.9;2.6;;;;;;
85633;SPS30;76057;47.828;13.040;2024-01-27T06:41:31;2.7;;2.8;2.6;;;;;;
85633;SPS30;76057;47.828;13.040;2024-01-27T06:46:31;2.2;;2.3;2.1;;;;;;
85633;SPS30;76057;47.828;13.040;2024-01-27T06:51:31;2.8;;2.8;2.6;;;;;;
85633;SPS30;76057;47.828;13.040;2024-01-27T06:56:31;3.2;;3.3;3.0;;;;;;
85633;SPS30;76057;47.828;13.040;2024-01-27T07:01:31;2.4;;2.4;2.3;;;;;;
85633;SPS30;76057;47.828;13.040;2024-01-27T07:06:31;2.6;;2.7;2.4;;;;;;
85633;SPS30;76057;47.828;13.040;2024-01-27T07:11:31;3.1;;3.2;2.9;;;;;;
85633;SPS30;76057;47.828;13.040;2024-01-27T07:16:31;2.6;;2.7;2.4;;;;;;
85633;SPS30;76057;47.828;13.040;2024-01-27T07:21:31;2.1;;2.1;2.0;;;;;;
85633;SPS30;76057;47.828;13.040;2024-01-27T07:26:31;2.5;;2.6;2.3;;;;;;
85633;SPS30;76057;47.828;13.040;2024-01-27T07:31:31;3.9;;4.0;3.7;;;;;;
85633;SPS30;76057;47.828;13.040;2024-01-27T07:36:31;2.9;;2.9;2.7;;;;;;
85633;SPS30;76057;47.828;13.040;2024-01-27T07:41:31;2.7;;2.8;2.6;;;;;;
85633;SPS30;76057;47.828;13.040;2024-01-27T07:46:31;2.7;;2.9;2.5;;;;;;
85633;SPS30;76057;47.828;13.040;2024-01-27T07:51:31;2.7;;2.8;2.5;;;;;;
85633;SPS30;76057;47.828;13.040;2024-01-27T07:56:31;3.1;;3.2;2.9;;;;;;
85633;SPS30;76057;47.828;13.040;2024-01-27T08:01:31;2.5;;2.5;2.4;;;;;;
85633;SPS30;76057;47.828;13.040;2024-01-27T08:06:31;2.7;;2.8;2.5;;;;;;
85633;SPS30;76057;47.828;13.040;2024-01-27T08:11:31;3.0;;3.0;2.8;;;;;;
85633;SPS30;76057;47.828;13.040;2024-01-27T08:16:31;2.8;;2.8;2.7;;;;;;
85633;SPS30;76057;47.828;13.040;2024-01-27T08:21:31;2.9;;2.9;2.8;;;;;;
85633;SPS30;76057;47.828;13.040;2024-01-27T08:26:31;3.1;;3.1;2.9;;;;;;
85633;SPS30;76057;47.828;13.040;2024-01-27T08:31:31;2.6;;2.6;2.5;;;;;;
85633;SPS30;76057;47.828;13.040;2024-01-27T08:36:31;2.8;;2.9;2.6;;;;;;
85633;SPS30;76057;47.828;13.040;2024-01-27T08:41:31;3.0;;3.1;2.8;;;;;;
85633;SPS30;76057;47.828;13.040;2024-01-27T08:46:31;3.2;;3.3;2.9;;;;;;
85633;SPS30;76057;47.828;13.040;2024-01-27T08:51:31;3.3;;3.3;3.1;;;;;;
85633;SPS30;76057;47.828;13.040;2024-01-27T08:56:31;3.5;;3.5;3.3;;;;;;
85633;SPS30;76057;47.828;13.040;2024-01-27T09:01:31;4.0;;4.0;3.8;;;;;;
85633;SPS30;76057;47.828;13.040;2024-01-27T09:06:31;4.6;;4.7;4.3;;;;;;
85633;SPS30;76057;47.828;13.040;2024-01-27T09:11:31;3.8;;3.8;3.6;;;;;;
85633;SPS30;76057;47.828;13.040;2024-01-27T09:16:31;4.2;;4.2;4.0;;;;;;
85633;SPS30;76057;47.828;13.040;2024-01-27T09:21:31;4.4;;4.4;4.2;;;;;;
85633;SPS30;76057;47.828;13.040;2024-01-27T09:26:31;4.5;;4.5;4.3;;;;;;
85633;SPS30;76057;47.828;13.040;2024-01-27T09:31:31;4.4;;4.4;4.2;;;;;;
85633;SPS30;76057;47.828;13.040;2024-01-27T09:36:31;3.6;;3.7;3.4;;;;;;
85633;SPS30;76057;47.828;13.040;2024-01-27T09:41:31;4.2;;4.3;4.0;;;;;;
85633;SPS30;76057;47.828;13.040;2024-01-27T09:46:31;3.6;;3.6;3.4;;;;;;
85633;SPS30;76057;47.828;13.040;2024-01-27T09:51:31;3.8;;3.9;3.6;;;;;;
85633;SPS30;76057;47.828;13.040;2024-01-27T09:56:31;4.2;;4.2;3.9;;;;;;
85633;SPS30;76057;47.828;13.040;2024-01-27T10:01:31;3.8;;3.8;3.6;;;;;;
85633;SPS30;76057;47.828;13.040;2024-01-27T10:06:31;2.8;;2.8;2.7;;;;;;
85633;SPS30;76057;47.828;13.040;2024-01-27T10:11:31;4.1;;4.1;3.9;;;;;;
85633;SPS30;76057;47.828;13.040;2024-01-27T10:16:39;3.5;;3.5;3.4;;;;;;
85633;SPS30;76057;47.828;13.040;2024-01-27T10:21:31;4.8;;4.8;4.6;;;;;;
85633;SPS30;76057;47.828;13.040;2024-01-27T10:26:31;3.1;;3.1;2.9;;;;;;
85633;SPS30;76057;47.828;13.040;2024-01-27T10:31:31;3.1;;3.1;3.0;;;;;;
85633;SPS30;76057;47.828;13.040;2024-01-27T10:41:31;2.8;;2.8;2.7;;;;;;
85633;SPS30;76057;47.828;13.040;2024-01-27T10:46:31;4.7;;4.7;4.5;;;;;;
85633;SPS30;76057;47.828;13.040;2024-01-27T10:51:31;3.4;;3.4;3.3;;;;;;
85633;SPS30;76057;47.828;13.040;2024-01-27T10:56:31;5.4;;5.4;5.1;;;;;;
85633;SPS30;76057;47.828;13.040;2024-01-27T11:01:31;3.2;;3.3;3.1;;;;;;
85633;SPS30;76057;47.828;13.040;2024-01-27T11:06:31;4.7;;4.7;4.4;;;;;;
85633;SPS30;76057;47.828;13.040;2024-01-27T11:11:31;3.9;;3.9;3.7;;;;;;
85633;SPS30;76057;47.828;13.040;2024-01-27T11:16:31;3.4;;3.4;3.3;;;;;;
85633;SPS30;76057;47.828;13.040;2024-01-27T11:21:31;6.4;;6.4;6.1;;;;;;
85633;SPS30;76057;47.828;13.040;2024-01-27T11:26:31;3.9;;3.9;3.7;;;;;;
85633;SPS30;76057;47.828;13.040;2024-01-27T11:31:31;4.1;;4.1;3.9;;;;;;
85633;SPS30;76057;47.828;13.040;2024-01-27T11:36:32;3.7;;3.7;3.5;;;;;;
85633;SPS30;76057;47.828;13.040;2024-01-27T11:41:31;3.1;;3.1;3.0;;;;;;
85633;SPS30;76057;47.828;13.040;2024-01-27T11:46:31;3.3;;3.3;3.2;;;;;;
85633;SPS30;76057;47.828;13.040;2024-01-27T11:51:31;3.5;;3.5;3.3;;;;;;
85633;SPS30;76057;47.828;13.040;2024-01-27T11:56:32;3.4;;3.4;3.3;;;;;;
85633;SPS30;76057;47.828;13.040;2024-01-27T12:01:31;3.0;;3.0;2.9;;;;;;
85633;SPS30;76057;47.828;13.040;2024-01-27T12:06:31;4.9;;4.9;4.6;;;;;;
85633;SPS30;76057;47.828;13.040;2024-01-27T12:11:31;8.9;;8.9;8.5;;;;;;
85633;SPS30;76057;47.828;13.040;2024-01-27T12:16:31;3.4;;3.4;3.2;;;;;;
85633;SPS30;76057;47.828;13.040;2024-01-27T12:21:31;2.6;;2.6;2.4;;;;;;
85633;SPS30;76057;47.828;13.040;2024-01-27T12:26:31;2.5;;2.6;2.4;;;;;;
85633;SPS30;76057;47.828;13.040;2024-01-27T12:31:31;2.7;;2.7;2.6;;;;;;
85633;SPS30;76057;47.828;13.040;2024-01-27T12:36:31;2.6;;2.6;2.4;;;;;;
85633;SPS30;76057;47.828;13.040;2024-01-27T12:41:31;2.5;;2.6;2.4;;;;;;
85633;SPS30;76057;47.828;13.040;2024-01-27T12:46:31;2.6;;2.6;2.5;;;;;;
85633;SPS30;76057;47.828;13.040;2024-01-27T12:51:31;2.3;;2.3;2.2;;;;;;
85633;SPS30;76057;47.828;13.040;2024-01-27T12:56:31;2.2;;2.2;2.1;;;;;;
85633;SPS30;76057;47.828;13.040;2024-01-27T13:01:32;2.3;;2.4;2.2;;;;;;
85633;SPS30;76057;47.828;13.040;2024-01-27T13:06:31;2.2;;2.2;2.1;;;;;;
85633;SPS30;76057;47.828;13.040;2024-01-27T13:11:31;2.5;;2.5;2.4;;;;;;
85633;SPS30;76057;47.828;13.040;2024-01-27T13:16:31;2.2;;2.2;2.1;;;;;;
85633;SPS30;76057;47.828;13.040;2024-01-27T13:21:31;2.7;;2.7;2.6;;;;;;
85633;SPS30;76057;47.828;13.040;2024-01-27T13:26:31;2.3;;2.4;2.2;;;;;;
85633;SPS30;76057;47.828;13.040;2024-01-27T13:31:31;1.9;;1.9;1.7;;;;;;
85633;SPS30;76057;47.828;13.040;2024-01-27T13:36:31;2.7;;2.8;2.5;;;;;;
85633;SPS30;76057;47.828;13.040;2024-01-27T13:41:31;2.5;;2.6;2.3;;;;;;
85633;SPS30;76057;47.828;13.040;2024-01-27T13:46:31;2.9;;2.9;2.7;;;;;;
85633;SPS30;76057;47.828;13.040;2024-01-27T13:51:31;2.4;;2.4;2.3;;;;;;
85633;SPS30;76057;47.828;13.040;2024-01-27T13:56:31;2.8;;2.8;2.6;;;;;;
85633;SPS30;76057;47.828;13.040;2024-01-27T14:01:31;2.7;;2.7;2.5;;;;;;
85633;SPS30;76057;47.828;13.040;2024-01-27T14:06:31;2.2;;2.3;2.1;;;;;;
85633;SPS30;76057;47.828;13.040;2024-01-27T14:11:31;2.7;;2.8;2.6;;;;;;
85633;SPS30;76057;47.828;13.040;2024-01-27T14:16:31;3.6;;3.6;3.5;;;;;;
85633;SPS30;76057;47.828;13.040;2024-01-27T14:21:31;2.5;;2.5;2.4;;;;;;
85633;SPS30;76057;47.828;13.040;2024-01-27T14:26:31;2.8;;2.8;2.6;;;;;;
85633;SPS30;76057;47.828;13.040;2024-01-27T14:31:31;2.3;;2.3;2.2;;;;;;
85633;SPS30;76057;47.828;13.040;2024-01-27T14:36:31;2.9;;2.9;2.8;;;;;;
85633;SPS30;76057;47.828;13.040;2024-01-27T14:41:31;3.2;;3.2;3.0;;;;;;
85633;SPS30;76057;47.828;13.040;2024-01-27T14:46:31;2.4;;2.4;2.3;;;;;;
85633;SPS30;76057;47.828;13.040;2024-01-27T14:51:31;2.4;;2.4;2.3;;;;;;
85633;SPS30;76057;47.828;13.040;2024-01-27T14:56:31;2.2;;2.2;2.1;;;;;;
85633;SPS30;76057;47.828;13.040;2024-01-27T15:01:31;2.7;;2.7;2.5;;;;;;
85633;SPS30;76057;47.828;13.040;2024-01-27T15:06:31;3.2;;3.2;3.0;;;;;;
85633;SPS30;76057;47.828;13.040;2024-01-27T15:11:31;2.9;;2.9;2.7;;;;;;
85633;SPS30;76057;47.828;13.040;2024-01-27T15:16:31;3.4;;3.4;3.2;;;;;;
85633;SPS30;76057;47.828;13.040;2024-01-27T15:21:31;3.9;;3.9;3.7;;;;;;
85633;SPS30;76057;47.828;13.040;2024-01-27T15:26:31;5.3;;5.3;5.1;;;;;;
85633;SPS30;76057;47.828;13.040;2024-01-27T15:31:31;3.2;;3.3;3.1;;;;;;
85633;SPS30;76057;47.828;13.040;2024-01-27T15:36:31;4.9;;4.9;4.7;;;;;;
85633;SPS30;76057;47.828;13.040;2024-01-27T15:41:31;4.5;;4.5;4.3;;;;;;
85633;SPS30;76057;47.828;13.040;2024-01-27T15:46:31;5.9;;5.9;5.6;;;;;;
85633;SPS30;76057;47.828;13.040;2024-01-27T15:51:31;6.4;;6.4;6.1;;;;;;
85633;SPS30;76057;47.828;13.040;2024-01-27T15:56:31;3.8;;3.8;3.6;;;;;;
85633;SPS30;76057;47.828;13.040;2024-01-27T16:01:31;3.7;;3.7;3.6;;;;;;
85633;SPS30;76057;47.828;13.040;2024-01-27T16:06:31;12.3;;12.3;11.7;;;;;;
85633;SPS30;76057;47.828;13.040;2024-01-27T16:11:31;5.7;;5.7;5.4;;;;;;
85633;SPS30;76057;47.828;13.040;2024-01-27T16:16:31;3.6;;3.6;3.4;;;;;;
85633;SPS30;76057;47.828;13.040;2024-01-27T16:21:31;4.5;;4.5;4.3;;;;;;
85633;SPS30;76057;47.828;13.040;2024-01-27T16:26:31;4.8;;4.8;4.5;;;;;;
85633;SPS30;76057;47.828;13.040;2024-01-27T16:31:31;5.1;;5.1;4.8;;;;;;
85633;SPS30;76057;47.828;13.040;2024-01-27T16:36:31;4.1;;4.1;3.9;;;;;;
85633;SPS30;76057;47.828;13.040;2024-01-27T16:41:31;4.1;;4.1;3.9;;;;;;
85633;SPS30;76057;47.828;13.040;2024-01-27T16:46:31;4.6;;4.6;4.4;;;;;;
85633;SPS30;76057;47.828;13.040;2024-01-27T16:51:31;5.3;;5.3;5.1;;;;;;
85633;SPS30;76057;47.828;13.040;2024-01-27T16:56:31;4.4;;4.4;4.2;;;;;;
85633;SPS30;76057;47.828;13.040;2024-01-27T17:01:31;4.5;;4.5;4.3;;;;;;
85633;SPS30;76057;47.828;13.040;2024-01-27T17:06:31;5.8;;5.9;5.5;;;;;;
85633;SPS30;76057;47.828;13.040;2024-01-27T17:11:31;5.6;;5.6;5.4;;;;;;
85633;SPS30;76057;47.828;13.040;2024-01-27T17:16:31;4.1;;4.1;3.9;;;;;;
85633;SPS30;76057;47.828;13.040;2024-01-27T17:21:31;6.3;;6.3;6.0;;;;;;
85633;SPS30;76057;47.828;13.040;2024-01-27T17:26:31;5.5;;5.5;5.2;;;;;;
85633;SPS30;76057;47.828;13.040;2024-01-27T17:31:31;8.2;;8.2;7.8;;;;;;
85633;SPS30;76057;47.828;13.040;2024-01-27T17:36:31;8.0;;8.0;7.6;;;;;;
85633;SPS30;76057;47.828;13.040;2024-01-27T17:41:31;9.5;;9.5;9.0;;;;;;
85633;SPS30;76057;47.828;13.040;2024-01-27T17:46:31;10.1;;10.2;9.6;;;;;;
85633;SPS30;76057;47.828;13.040;2024-01-27T17:51:31;10.3;;10.4;9.7;;;;;;
85633;SPS30;76057;47.828;13.040;2024-01-27T17:56:31;9.7;;9.7;9.3;;;;;;
85633;SPS30;76057;47.828;13.040;2024-01-27T18:01:31;5.8;;5.8;5.5;;;;;;
85633;SPS30;76057;47.828;13.040;2024-01-27T18:06:31;9.9;;9.9;9.4;;;;;;
85633;SPS30;76057;47.828;13.040;2024-01-27T18:11:31;12.1;;12.2;11.4;;;;;;
85633;SPS30;76057;47.828;13.040;2024-01-27T18:16:31;13.0;;13.0;12.4;;;;;;
85633;SPS30;76057;47.828;13.040;2024-01-27T18:21:31;13.0;;13.1;12.4;;;;;;
85633;SPS30;76057;47.828;13.040;2024-01-27T18:26:31;13.9;;14.2;13.0;;;;;;
85633;SPS30;76057;47.828;13.040;2024-01-27T18:31:31;13.0;;13.1;12.3;;;;;;
85633;SPS30;76057;47.828;13.040;2024-01-27T18:36:31;11.8;;11.8;11.3;;;;;;
85633;SPS30;76057;47.828;13.040;2024-01-27T18:41:31;12.0;;12.0;11.4;;;;;;
85633;SPS30;76057;47.828;13.040;2024-01-27T18:46:31;14.4;;14.7;13.5;;;;;;
85633;SPS30;76057;47.828;13.040;2024-01-27T18:51:31;12.0;;12.1;11.4;;;;;;
85633;SPS30;76057;47.828;13.040;2024-01-27T18:56:31;10.8;;10.9;10.2;;;;;;
85633;SPS30;76057;47.828;13.040;2024-01-27T19:01:31;12.0;;12.0;11.4;;;;;;
85633;SPS30;76057;47.828;13.040;2024-01-27T19:06:31;10.2;;10.2;9.7;;;;;;
85633;SPS30;76057;47.828;13.040;2024-01-27T19:11:31;10.7;;10.7;10.2;;;;;;
85633;SPS30;76057;47.828;13.040;2024-01-27T19:16:31;10.2;;10.2;9.7;;;;;;
85633;SPS30;76057;47.828;13.040;2024-01-27T19:21:31;18.3;;18.3;17.4;;;;;;
85633;SPS30;76057;47.828;13.040;2024-01-27T19:26:31;14.1;;14.1;13.4;;;;;;
85633;SPS30;76057;47.828;13.040;2024-01-27T19:31:31;16.2;;16.2;15.4;;;;;;
85633;SPS30;76057;47.828;13.040;2024-01-27T19:36:31;20.5;;20.8;19.2;;;;;;
85633;SPS30;76057;47.828;13.040;2024-01-27T19:41:31;18.8;;19.1;17.6;;;;;;
85633;SPS30;76057;47.828;13.040;2024-01-27T19:46:31;16.7;;17.0;15.7;;;;;;
85633;SPS30;76057;47.828;13.040;2024-01-27T19:51:31;19.1;;19.4;18.0;;;;;;
85633;SPS30;76057;47.828;13.040;2024-01-27T19:56:31;14.1;;14.1;13.4;;;;;;
85633;SPS30;76057;47.828;13.040;2024-01-27T20:01:31;15.0;;15.2;14.2;;;;;;
85633;SPS30;76057;47.828;13.040;2024-01-27T20:06:31;13.9;;14.1;13.2;;;;;;
85633;SPS30;76057;47.828;13.040;2024-01-27T20:11:31;18.7;;19.0;17.7;;;;;;
85633;SPS30;76057;47.828;13.040;2024-01-27T20:16:31;20.0;;20.3;18.8;;;;;;
85633;SPS30;76057;47.828;13.040;2024-01-27T20:21:31;21.7;;22.1;20.4;;;;;;
85633;SPS30;76057;47.828;13.040;2024-01-27T20:26:31;18.0;;18.4;16.8;;;;;;
85633;SPS30;76057;47.828;13.040;2024-01-27T20:31:31;18.5;;18.6;17.5;;;;;;
85633;SPS30;76057;47.828;13.040;2024-01-27T20:36:31;17.4;;17.7;16.4;;;;;;
85633;SPS30;76057;47.828;13.040;2024-01-27T20:41:31;15.5;;15.8;14.6;;;;;;
85633;SPS30;76057;47.828;13.040;2024-01-27T20:46:31;14.2;;14.3;13.5;;;;;;
85633;SPS30;76057;47.828;13.040;2024-01-27T20:51:31;16.9;;17.2;15.8;;;;;;
85633;SPS30;76057;47.828;13.040;2024-01-27T20:56:31;16.9;;17.4;15.8;;;;;;
85633;SPS30;76057;47.828;13.040;2024-01-27T21:01:31;18.0;;18.0;17.1;;;;;;
85633;SPS30;76057;47.828;13.040;2024-01-27T21:06:31;15.1;;15.4;14.2;;;;;;
85633;SPS30;76057;47.828;13.040;2024-01-27T21:11:31;14.6;;14.7;13.9;;;;;;
85633;SPS30;76057;47.828;13.040;2024-01-27T21:16:31;13.2;;13.4;12.5;;;;;;
85633;SPS30;76057;47.828;13.040;2024-01-27T21:21:31;13.4;;13.6;12.7;;;;;;
85633;SPS30;76057;47.828;13.040;2024-01-27T21:26:31;13.6;;13.8;12.8;;;;;;
85633;SPS30;76057;47.828;13.040;2024-01-27T21:31:31;14.0;;14.0;13.3;;;;;;
85633;SPS30;76057;47.828;13.040;2024-01-27T21:36:31;13.1;;13.2;12.4;;;;;;
85633;SPS30;76057;47.828;13.040;2024-01-27T21:41:31;13.2;;13.2;12.5;;;;;;
85633;SPS30;76057;47.828;13.040;2024-01-27T21:46:31;12.3;;12.5;11.6;;;;;;
85633;SPS30;76057;47.828;13.040;2024-01-27T21:51:31;13.3;;13.3;12.6;;;;;;
